createdAt,value
2023-01-02T00:00:20.865Z,10.02
2023-01-02T00:03:09.922Z,11.10
2023-01-02T00:05:38.933Z,8.95
2023-01-02T00:08:08.951Z,10.80
2023-01-02T00:10:37.758Z,8.55
2023-01-02T00:13:06.564Z,9.88
2023-01-02T00:16:11.611Z,12.25
2023-01-02T00:18:40.044Z,6.18
2023-01-02T00:21:09.027Z,6.63
2023-01-02T00:23:39.057Z,11.32
2023-01-02T00:26:08.040Z,8.98
2023-01-02T00:28:37.787Z,7.28
2023-01-02T00:31:08.485Z,7.43
2023-01-02T00:33:38.207Z,12.02
2023-01-02T00:36:08.949Z,10.95
2023-01-02T00:38:39.061Z,14.07
2023-01-02T00:41:08.590Z,9.18
2023-01-02T00:43:37.480Z,12.25
2023-01-02T00:46:11.547Z,9.88
2023-01-02T00:48:41.088Z,9.57
2023-01-02T00:51:10.137Z,12.25
2023-01-02T00:53:40.336Z,14.88
2023-01-02T00:56:09.515Z,8.02
2023-01-02T00:58:38.188Z,9.25
2023-01-02T01:01:07.292Z,8.60
2023-01-02T01:03:36.059Z,13.35
2023-01-02T01:06:08.810Z,7.18
2023-01-02T01:08:39.628Z,15.32
2023-01-02T01:11:09.426Z,18.00
2023-01-02T01:13:38.312Z,9.20
2023-01-02T01:16:08.438Z,9.93
2023-01-02T01:18:37.554Z,17.58
2023-01-02T01:21:09.474Z,7.75
2023-01-02T01:23:39.521Z,12.13
2023-01-02T01:26:09.759Z,9.07
2023-01-02T01:28:38.596Z,9.05
2023-01-02T01:31:10.096Z,9.43
2023-01-02T01:33:39.505Z,8.25
2023-01-02T01:36:10.345Z,9.00
2023-01-02T01:38:40.524Z,7.47
2023-01-02T01:41:10.222Z,16.80
2023-01-02T01:43:41.389Z,13.05
2023-01-02T01:46:20.407Z,12.77
2023-01-02T01:48:53.839Z,10.95
2023-01-02T01:51:23.842Z,10.93
2023-01-02T01:53:57.941Z,10.07
2023-01-02T01:56:27.452Z,12.65
2023-01-02T01:58:56.338Z,9.00
2023-01-02T02:01:25.653Z,10.80
2023-01-02T02:03:54.539Z,9.50
2023-01-02T02:06:23.613Z,9.73
2023-01-02T02:08:59.162Z,12.20
2023-01-02T02:11:29.398Z,16.55
2023-01-02T02:14:00.641Z,14.18
2023-01-02T02:16:40.656Z,13.38
2023-01-02T02:19:53.687Z,9.77
2023-01-02T02:22:58.243Z,10.10
2023-01-02T02:28:49.151Z,10.80
2023-01-02T02:31:28.308Z,9.10
2023-01-02T02:34:00.449Z,11.48
2023-01-02T02:36:35.896Z,8.95
2023-01-02T02:39:17.512Z,11.57
2023-01-02T02:41:55.786Z,13.30
2023-01-02T02:44:36.877Z,10.57
2023-01-02T02:47:12.324Z,10.55
2023-01-02T02:49:49.325Z,18.58
2023-01-02T02:52:25.611Z,18.20
2023-01-02T02:55:00.067Z,16.88
2023-01-02T02:57:30.286Z,11.90
2023-01-02T02:59:59.450Z,14.27
2023-01-02T03:02:29.713Z,11.32
2023-01-02T03:05:03.654Z,14.80
2023-01-02T03:07:37.762Z,15.48
2023-01-02T03:10:26.020Z,14.90
2023-01-02T03:13:03.986Z,12.38
2023-01-02T03:15:36.906Z,17.10
2023-01-02T03:18:16.380Z,15.30
2023-01-02T03:20:48.520Z,12.15
2023-01-02T03:23:22.403Z,11.43
2023-01-02T03:25:52.206Z,12.85
2023-01-02T03:28:24.809Z,18.30
2023-01-02T03:30:58.544Z,17.27
2023-01-02T03:33:32.072Z,18.08
2023-01-02T03:36:03.770Z,10.63
2023-01-02T03:38:37.370Z,8.73
2023-01-02T03:41:11.752Z,14.35
2023-01-02T03:43:42.748Z,12.65
2023-01-02T03:46:18.660Z,19.83
2023-01-02T03:48:54.914Z,13.10
2023-01-02T03:51:23.962Z,20.92
2023-01-02T03:53:53.472Z,14.32
2023-01-02T03:56:28.394Z,18.17
2023-01-02T03:59:02.719Z,11.48
2023-01-02T04:01:54.800Z,18.77
2023-01-02T04:04:34.846Z,16.33
2023-01-02T04:07:07.879Z,23.10
2023-01-02T04:09:39.123Z,19.10
2023-01-02T04:12:12.839Z,15.52
2023-01-02T04:14:45.922Z,19.38
2023-01-02T04:17:17.128Z,15.50
2023-01-02T04:19:50.960Z,17.95
2023-01-02T04:22:22.851Z,15.27
2023-01-02T04:24:56.610Z,19.50
2023-01-02T04:27:29.740Z,21.45
2023-01-02T04:29:58.803Z,20.30
2023-01-02T04:32:31.412Z,20.23
2023-01-02T04:35:06.365Z,17.83
2023-01-02T04:37:36.691Z,23.30
2023-01-02T04:40:09.697Z,16.50
2023-01-02T04:42:38.313Z,21.58
2023-01-02T04:45:08.378Z,19.50
2023-01-02T04:47:37.072Z,28.27
2023-01-02T04:50:08.560Z,22.35
2023-01-02T04:52:37.747Z,21.40
2023-01-02T04:55:08.338Z,26.20
2023-01-02T04:57:37.236Z,27.15
2023-01-02T05:00:07.996Z,37.00
2023-01-02T05:02:37.605Z,31.65
2023-01-02T05:05:10.613Z,25.73
2023-01-02T05:07:40.174Z,25.63
2023-01-02T05:10:10.049Z,23.25
2023-01-02T05:12:40.502Z,26.75
2023-01-02T05:15:11.144Z,22.67
2023-01-02T05:17:41.322Z,24.30
2023-01-02T05:20:15.685Z,27.90
2023-01-02T05:23:03.000Z,23.92
2023-01-02T05:25:34.806Z,29.73
2023-01-02T05:28:04.815Z,37.17
2023-01-02T05:30:33.963Z,31.20
2023-01-02T05:33:02.411Z,27.58
2023-01-02T05:35:33.627Z,30.77
2023-01-02T05:38:02.419Z,25.75
2023-01-02T05:40:31.297Z,25.85
2023-01-02T05:43:00.312Z,19.90
2023-01-02T05:45:29.943Z,29.23
2023-01-02T05:47:58.347Z,27.35
2023-01-02T05:50:27.052Z,33.53
2023-01-02T05:52:58.191Z,31.52
2023-01-02T05:55:27.087Z,28.92
2023-01-02T05:57:56.290Z,28.73
2023-01-02T06:00:25.474Z,33.83
2023-01-02T06:02:54.535Z,26.00
2023-01-02T06:05:23.466Z,30.33
2023-01-02T06:07:51.979Z,38.50
2023-01-02T06:10:22.130Z,26.33
2023-01-02T06:12:50.821Z,21.65
2023-01-02T06:15:19.677Z,29.35
2023-01-02T06:17:48.102Z,22.63
2023-01-02T06:20:17.165Z,31.75
2023-01-02T06:22:45.845Z,26.70
2023-01-02T06:25:14.597Z,19.85
2023-01-02T06:27:44.378Z,27.08
2023-01-02T06:30:13.661Z,22.15
2023-01-02T06:32:41.956Z,27.02
2023-01-02T06:35:11.865Z,28.70
2023-01-02T06:37:44.218Z,30.95
2023-01-02T06:40:13.204Z,26.63
2023-01-02T06:42:41.720Z,28.25
2023-01-02T06:45:13.168Z,21.27
2023-01-02T06:47:41.671Z,28.83
2023-01-02T06:50:11.211Z,26.90
2023-01-02T06:52:40.305Z,24.67
2023-01-02T06:55:09.892Z,22.23
2023-01-02T06:57:38.420Z,30.92
2023-01-02T07:00:08.274Z,21.85
2023-01-02T07:02:38.251Z,19.80
2023-01-02T07:05:08.244Z,18.02
2023-01-02T07:07:37.008Z,33.17
2023-01-02T07:10:07.311Z,23.73
2023-01-02T07:12:37.179Z,18.83
2023-01-02T07:15:07.108Z,17.77
2023-01-02T07:17:37.134Z,18.42
2023-01-02T07:20:07.024Z,25.60
2023-01-02T07:22:35.822Z,29.95
2023-01-02T07:25:04.950Z,21.85
2023-01-02T07:27:34.101Z,22.70
2023-01-02T07:30:03.242Z,19.70
2023-01-02T07:32:32.002Z,24.58
2023-01-02T07:35:02.363Z,19.85
2023-01-02T07:37:30.897Z,19.65
2023-01-02T07:39:59.533Z,20.40
2023-01-02T07:42:28.170Z,18.35
2023-01-02T07:44:56.789Z,19.02
2023-01-02T07:47:25.073Z,26.42
2023-01-02T07:49:53.647Z,19.33
2023-01-02T07:52:23.260Z,18.17
2023-01-02T07:54:51.812Z,21.02
2023-01-02T07:57:20.093Z,20.80
2023-01-02T07:59:50.163Z,16.48
2023-01-02T08:02:18.540Z,21.27
2023-01-02T08:04:47.341Z,20.63
2023-01-02T08:07:15.648Z,20.48
2023-01-02T08:09:45.567Z,28.50
2023-01-02T08:12:13.886Z,18.17
2023-01-02T08:14:42.472Z,18.35
2023-01-02T08:17:10.833Z,15.50
2023-01-02T08:19:39.430Z,17.70
2023-01-02T08:22:07.759Z,15.77
2023-01-02T08:24:36.412Z,16.25
2023-01-02T08:27:06.148Z,19.00
2023-01-02T08:29:34.910Z,20.98
2023-01-02T08:32:03.267Z,17.67
2023-01-02T08:34:31.923Z,19.15
2023-01-02T08:37:00.323Z,16.73
2023-01-02T08:39:30.164Z,17.98
2023-01-02T08:41:59.135Z,14.38
2023-01-02T08:44:29.079Z,15.40
2023-01-02T08:46:57.320Z,20.73
2023-01-02T08:49:25.920Z,11.95
2023-01-02T08:51:54.396Z,18.05
2023-01-02T08:54:23.009Z,17.80
2023-01-02T08:56:51.406Z,17.73
2023-01-02T08:59:20.097Z,16.00
2023-01-02T09:01:50.019Z,14.70
2023-01-02T09:04:19.031Z,14.50
2023-01-02T09:06:48.840Z,18.65
2023-01-02T09:09:18.901Z,15.38
2023-01-02T09:11:50.565Z,18.67
2023-01-02T09:14:20.923Z,10.82
2023-01-02T09:16:51.468Z,15.50
2023-01-02T09:19:20.611Z,17.00
2023-01-02T09:21:49.185Z,15.25
2023-01-02T09:24:18.133Z,11.63
2023-01-02T09:26:46.560Z,16.95
2023-01-02T09:29:16.565Z,10.73
2023-01-02T09:31:44.909Z,13.50
2023-01-02T09:34:15.088Z,11.20
2023-01-02T09:36:43.552Z,19.75
2023-01-02T09:39:12.726Z,12.80
2023-01-02T09:41:43.478Z,12.15
2023-01-02T09:44:17.307Z,13.38
2023-01-02T09:46:49.998Z,10.93
2023-01-02T09:49:23.147Z,14.05
2023-01-02T09:51:51.760Z,8.95
2023-01-02T09:54:25.322Z,10.63
2023-01-02T09:57:05.159Z,7.18
2023-01-02T09:59:37.674Z,10.20
2023-01-02T10:02:21.456Z,11.10
2023-01-02T10:05:05.263Z,5.15
2023-01-02T10:07:42.007Z,15.23
2023-01-02T10:10:17.319Z,11.10
2023-01-02T10:12:56.614Z,10.73
2023-01-02T10:15:28.553Z,12.93
2023-01-02T10:18:02.061Z,7.70
2023-01-02T10:20:46.106Z,17.00
2023-01-02T10:23:19.725Z,13.27
2023-01-02T10:25:54.447Z,10.50
2023-01-02T10:28:31.543Z,8.48
2023-01-02T10:31:07.245Z,9.15
2023-01-02T10:33:45.286Z,8.77
2023-01-02T10:36:24.787Z,10.25
2023-01-02T10:38:54.110Z,9.25
2023-01-02T10:41:22.745Z,7.47
2023-01-02T10:43:55.322Z,5.97
2023-01-02T10:46:24.154Z,5.80
2023-01-02T10:48:52.657Z,7.57
2023-01-02T10:51:22.871Z,12.63
2023-01-02T10:54:01.579Z,6.10
2023-01-02T10:56:33.252Z,9.27
2023-01-02T10:59:02.310Z,10.90
2023-01-02T11:01:31.627Z,9.05
2023-01-02T11:04:21.208Z,9.85
2023-01-02T11:06:56.950Z,9.95
2023-01-02T11:09:28.129Z,7.63
2023-01-02T11:11:58.585Z,17.42
2023-01-02T11:14:32.255Z,7.20
2023-01-02T11:17:06.002Z,13.10
2023-01-02T11:19:41.727Z,8.48
2023-01-02T11:22:13.682Z,6.82
2023-01-02T11:25:00.120Z,7.35
2023-01-02T11:27:33.768Z,12.95
2023-01-02T11:30:02.714Z,7.75
2023-01-02T11:32:39.091Z,11.20
2023-01-02T11:35:29.930Z,10.45
2023-01-02T11:38:02.355Z,15.02
2023-01-02T11:40:33.022Z,18.77
2023-01-02T11:43:25.891Z,7.00
2023-01-02T11:45:55.336Z,4.95
2023-01-02T11:48:25.606Z,10.88
2023-01-02T11:50:54.144Z,6.28
2023-01-02T11:53:31.187Z,7.82
2023-01-02T11:56:06.611Z,8.48
2023-01-02T11:58:40.195Z,7.00
2023-01-02T12:01:18.549Z,10.70
2023-01-02T12:03:47.381Z,8.45
2023-01-02T12:06:19.341Z,8.38
2023-01-02T12:09:01.832Z,6.88
2023-01-02T12:11:45.237Z,6.03
2023-01-02T12:14:18.092Z,7.45
2023-01-02T12:16:57.887Z,7.80
2023-01-02T12:19:42.060Z,10.13
2023-01-02T12:22:30.331Z,12.48
2023-01-02T12:25:29.837Z,6.32
2023-01-02T12:28:08.365Z,10.52
2023-01-02T12:30:46.177Z,6.95
2023-01-02T12:33:41.770Z,6.63
2023-01-02T12:36:37.493Z,4.35
2023-01-02T12:39:31.486Z,6.10
2023-01-02T12:42:16.231Z,7.15
2023-01-02T12:44:51.120Z,5.93
2023-01-02T12:47:53.576Z,10.07
2023-01-02T12:50:49.256Z,6.50
2023-01-02T12:53:32.209Z,8.13
2023-01-02T12:56:11.708Z,11.45
2023-01-02T12:58:55.793Z,7.43
2023-01-02T13:01:30.429Z,4.93
2023-01-02T13:04:10.653Z,9.45
2023-01-02T13:06:48.583Z,7.07
2023-01-02T13:09:24.603Z,7.05
2023-01-02T13:12:11.143Z,5.05
2023-01-02T13:14:45.863Z,6.22
2023-01-02T13:17:38.090Z,6.70
2023-01-02T13:20:15.998Z,8.90
2023-01-02T13:22:55.221Z,7.65
2023-01-02T13:25:25.888Z,6.15
2023-01-02T13:27:57.183Z,4.95
2023-01-02T13:30:46.061Z,8.52
2023-01-02T13:33:23.036Z,7.38
2023-01-02T13:35:51.962Z,5.72
2023-01-02T13:38:21.314Z,3.40
2023-01-02T13:40:57.036Z,5.43
2023-01-02T13:43:29.553Z,6.75
2023-01-02T13:46:00.714Z,4.90
2023-01-02T13:48:34.012Z,7.85
2023-01-02T13:51:05.221Z,5.20
2023-01-02T13:53:38.632Z,6.38
2023-01-02T13:56:14.702Z,6.38
2023-01-02T13:58:51.424Z,9.23
2023-01-02T14:02:05.034Z,9.95
2023-01-02T14:04:40.179Z,11.60
2023-01-02T14:07:46.262Z,4.97
2023-01-02T14:10:41.607Z,11.73
2023-01-02T14:13:35.836Z,7.63
2023-01-02T14:16:33.074Z,7.20
2023-01-02T14:19:16.643Z,6.68
2023-01-02T14:21:49.141Z,7.32
2023-01-02T14:24:31.196Z,5.95
2023-01-02T14:27:02.410Z,5.13
2023-01-02T14:29:32.781Z,4.75
2023-01-02T14:32:05.152Z,8.27
2023-01-02T14:34:36.120Z,12.32
2023-01-02T14:37:05.903Z,13.63
2023-01-02T14:39:37.049Z,13.77
2023-01-02T14:42:40.067Z,4.50
2023-01-02T14:45:14.155Z,5.35
2023-01-02T14:47:46.525Z,5.88
2023-01-02T14:50:19.327Z,8.00
2023-01-02T14:52:53.902Z,6.60
2023-01-02T14:55:25.222Z,13.45
2023-01-02T14:57:55.770Z,5.40
2023-01-02T15:00:32.001Z,7.65
2023-01-02T15:03:13.668Z,6.03
2023-01-02T15:05:48.778Z,6.68
2023-01-02T15:08:21.460Z,4.38
2023-01-02T15:10:56.782Z,7.18
2023-01-02T15:13:27.645Z,6.80
2023-01-02T15:16:00.385Z,5.70
2023-01-02T15:18:32.052Z,8.50
2023-01-02T15:21:08.215Z,7.13
2023-01-02T15:23:39.211Z,9.50
2023-01-02T15:26:33.430Z,8.57
2023-01-02T15:29:05.153Z,7.85
2023-01-02T15:31:34.501Z,7.63
2023-01-02T15:34:03.071Z,7.93
2023-01-02T15:36:39.171Z,4.88
2023-01-02T15:39:17.791Z,5.50
2023-01-02T15:41:50.321Z,10.15
2023-01-02T15:44:40.701Z,9.93
2023-01-02T15:47:10.219Z,7.43
2023-01-02T15:49:41.450Z,6.05
2023-01-02T15:52:20.451Z,5.40
2023-01-02T15:54:51.149Z,5.70
2023-01-02T15:57:22.056Z,10.40
2023-01-02T15:59:50.455Z,15.20
2023-01-02T16:02:37.446Z,6.20
2023-01-02T16:05:11.880Z,13.38
2023-01-02T16:07:41.034Z,6.38
2023-01-02T16:10:18.966Z,10.02
2023-01-02T16:12:52.902Z,5.80
2023-01-02T16:15:24.162Z,8.93
2023-01-02T16:17:55.011Z,5.50
2023-01-02T16:20:24.729Z,8.05
2023-01-02T16:22:57.797Z,9.32
2023-01-02T16:25:30.422Z,6.45
2023-01-02T16:28:03.186Z,6.53
2023-01-02T16:30:37.733Z,16.75
2023-01-02T16:33:22.629Z,4.82
2023-01-02T16:36:00.579Z,7.40
2023-01-02T16:38:30.403Z,8.52
2023-01-02T16:41:04.548Z,10.52
2023-01-02T16:43:41.205Z,6.63
2023-01-02T16:46:16.075Z,10.70
2023-01-02T16:48:45.749Z,11.45
2023-01-02T16:51:15.010Z,8.45
2023-01-02T16:53:45.840Z,7.78
2023-01-02T16:56:16.707Z,8.10
2023-01-02T16:58:45.553Z,6.78
2023-01-02T17:01:16.013Z,7.57
2023-01-02T17:03:45.615Z,10.77
2023-01-02T17:06:15.570Z,11.65
2023-01-02T17:08:44.517Z,11.55
2023-01-02T17:11:17.880Z,8.90
2023-01-02T17:13:49.137Z,6.40
2023-01-02T17:16:18.150Z,6.43
2023-01-02T17:18:46.930Z,9.93
2023-01-02T17:21:15.768Z,11.65
2023-01-02T17:23:44.484Z,8.25
2023-01-02T17:26:12.828Z,8.30
2023-01-02T17:28:42.774Z,14.55
2023-01-02T17:31:15.329Z,6.82
2023-01-02T17:33:44.409Z,7.82
2023-01-02T17:36:12.746Z,6.80
2023-01-02T17:38:41.672Z,10.15
2023-01-02T17:41:10.055Z,11.88
2023-01-02T17:43:38.738Z,10.38
2023-01-02T17:47:05.074Z,6.30
2023-01-02T17:49:17.527Z,13.40
2023-01-02T17:51:46.087Z,9.07
2023-01-02T17:54:14.852Z,10.45
2023-01-02T17:56:43.421Z,8.90
2023-01-02T17:59:12.263Z,5.85
2023-01-02T18:01:42.316Z,12.27
2023-01-02T18:04:11.123Z,7.43
2023-01-02T18:06:39.765Z,8.40
2023-01-02T18:09:09.204Z,13.73
2023-01-02T18:11:37.601Z,8.23
2023-01-02T18:14:18.326Z,35.10
2023-01-02T18:16:50.666Z,12.98
2023-01-02T18:19:22.471Z,9.35
2023-01-02T18:21:51.722Z,11.27
2023-01-02T18:24:26.762Z,10.85
2023-01-02T18:26:58.578Z,11.90
2023-01-02T18:29:27.403Z,7.97
2023-01-02T18:31:57.183Z,10.93
2023-01-02T18:34:47.541Z,11.23
2023-01-02T18:37:21.142Z,7.70
2023-01-02T18:39:50.968Z,12.00
2023-01-02T18:42:21.936Z,9.13
2023-01-02T18:44:52.303Z,8.32
2023-01-02T18:47:30.154Z,6.35
2023-01-02T18:50:03.150Z,8.25
2023-01-02T18:52:32.643Z,8.77
2023-01-02T18:55:04.792Z,7.55
2023-01-02T18:57:35.584Z,5.88
2023-01-02T19:00:21.200Z,11.00
2023-01-02T19:02:56.828Z,5.82
2023-01-02T19:05:28.192Z,7.65
2023-01-02T19:08:19.767Z,10.13
2023-01-02T19:10:51.417Z,7.35
2023-01-02T19:13:21.520Z,8.45
2023-01-02T19:15:52.285Z,7.88
2023-01-02T19:18:29.969Z,10.35
2023-01-02T19:21:04.809Z,7.85
2023-01-02T19:23:41.872Z,8.63
2023-01-02T19:26:19.634Z,14.05
2023-01-02T19:28:54.304Z,5.88
2023-01-02T19:31:23.635Z,8.45
2023-01-02T19:33:57.637Z,7.72
2023-01-02T19:36:36.613Z,14.30
2023-01-02T19:39:24.424Z,13.32
2023-01-02T19:42:07.264Z,11.02
2023-01-02T19:44:35.628Z,6.70
2023-01-02T19:47:04.544Z,5.15
2023-01-02T19:49:35.083Z,13.75
2023-01-02T19:52:03.969Z,10.13
2023-01-02T19:54:32.285Z,8.32
2023-01-02T19:57:01.052Z,14.40
2023-01-02T19:59:29.425Z,12.98
2023-01-02T20:01:58.726Z,15.88
2023-01-02T20:04:27.782Z,9.98
2023-01-02T20:06:57.834Z,7.40
2023-01-02T20:09:27.119Z,7.25
2023-01-02T20:12:14.565Z,7.53
2023-01-02T20:14:43.661Z,8.68
2023-01-02T20:17:12.769Z,6.63
2023-01-02T20:19:41.647Z,8.80
2023-01-02T20:22:12.132Z,11.25
2023-01-02T20:24:40.550Z,8.13
2023-01-02T20:27:09.303Z,12.70
2023-01-02T20:29:37.613Z,4.90
2023-01-02T20:32:06.900Z,9.68
2023-01-02T20:34:35.280Z,6.05
2023-01-02T20:37:03.874Z,5.78
2023-01-02T20:39:33.707Z,15.48
2023-01-02T20:42:03.718Z,4.95
2023-01-02T20:44:34.366Z,10.68
2023-01-02T20:47:03.165Z,7.25
2023-01-02T20:49:31.419Z,10.00
2023-01-02T20:51:59.967Z,7.68
2023-01-02T20:54:28.588Z,5.65
2023-01-02T20:56:59.072Z,8.35
2023-01-02T20:59:27.430Z,9.43
2023-01-02T21:01:56.898Z,9.07
2023-01-02T21:04:34.206Z,6.07
2023-01-02T21:07:05.862Z,8.25
2023-01-02T21:09:34.414Z,12.20
2023-01-02T21:12:04.657Z,9.80
2023-01-02T21:14:37.511Z,6.13
2023-01-02T21:17:06.580Z,7.68
2023-01-02T21:19:35.016Z,6.78
2023-01-02T21:22:04.017Z,9.95
2023-01-02T21:24:32.390Z,10.82
2023-01-02T21:27:01.015Z,5.53
2023-01-02T21:29:37.448Z,16.30
2023-01-02T21:32:13.738Z,8.05
2023-01-02T21:35:03.218Z,13.90
2023-01-02T21:37:32.572Z,7.75
2023-01-02T21:40:04.496Z,5.25
2023-01-02T21:42:36.877Z,6.10
2023-01-02T21:45:18.047Z,6.80
2023-01-02T21:48:04.713Z,15.52
2023-01-02T21:50:36.976Z,6.32
2023-01-02T21:53:31.461Z,6.65
2023-01-02T21:56:08.293Z,5.40
2023-01-02T21:58:40.011Z,6.85
2023-01-02T22:01:14.624Z,3.67
2023-01-02T22:03:45.013Z,6.93
2023-01-02T22:06:17.438Z,4.80
2023-01-02T22:08:58.282Z,10.85
2023-01-02T22:11:53.507Z,4.30
2023-01-02T22:14:30.707Z,8.55
2023-01-02T22:17:09.921Z,7.88
2023-01-02T22:19:44.562Z,7.68
2023-01-02T22:22:13.523Z,6.15
2023-01-02T22:24:49.519Z,4.28
2023-01-02T22:27:34.277Z,4.82
2023-01-02T22:30:23.389Z,4.13
2023-01-02T22:33:13.562Z,3.55
2023-01-02T22:35:46.661Z,4.43
2023-01-02T22:38:17.901Z,3.35
2023-01-02T22:40:48.735Z,5.70
2023-01-02T22:43:31.621Z,1.98
2023-01-02T22:46:24.407Z,2.53
2023-01-02T22:48:59.522Z,10.20
2023-01-02T22:52:06.407Z,5.80
2023-01-02T22:54:36.909Z,4.40
2023-01-02T22:57:13.996Z,6.50
2023-01-02T23:00:01.517Z,6.15
2023-01-02T23:02:31.438Z,3.78
2023-01-02T23:05:01.977Z,5.82
2023-01-02T23:07:34.563Z,3.45
2023-01-02T23:10:08.385Z,4.35
2023-01-02T23:12:42.784Z,6.38
2023-01-02T23:15:22.328Z,9.90
2023-01-02T23:18:22.742Z,8.30
2023-01-02T23:21:00.538Z,11.88
2023-01-02T23:23:31.199Z,4.88
2023-01-02T23:26:02.986Z,7.07
2023-01-02T23:31:29.626Z,8.25
2023-01-02T23:33:58.968Z,5.13
2023-01-02T23:36:32.490Z,8.70
2023-01-02T23:39:03.993Z,8.30
2023-01-02T23:41:37.730Z,6.32
2023-01-02T23:44:07.560Z,4.88
2023-01-02T23:46:37.111Z,4.95
2023-01-02T23:49:12.645Z,3.92
2023-01-02T23:52:00.045Z,6.20
2023-01-02T23:54:37.691Z,6.60
2023-01-02T23:57:15.488Z,3.17
2023-01-02T23:59:45.684Z,5.00
